sensor_id;sensor_type;location;lat;lon;timestamp;pressure;altitude;pressure_sealevel;temperature;humidity
13821;BME280;6981;42.678;23.294;2022-08-19T00:01:01;94436.53;;;20.93;100.00
13821;BME280;6981;42.678;23.294;2022-08-19T00:03:45;94440.84;;;20.99;100.00
13821;BME280;6981;42.678;23.294;2022-08-19T00:06:28;94447.78;;;20.95;100.00
13821;BME280;6981;42.678;23.294;2022-08-19T00:08:57;94439.50;;;20.91;100.00
13821;BME280;6981;42.678;23.294;2022-08-19T00:11:39;94425.34;;;20.91;100.00
13821;BME280;6981;42.678;23.294;2022-08-19T00:20:47;94433.97;;;20.71;100.00
13821;BME280;6981;42.678;23.294;2022-08-19T00:23:32;94526.44;;;21.09;100.00
13821;BME280;6981;42.678;23.294;2022-08-19T00:26:02;94449.66;;;20.67;100.00
13821;BME280;6981;42.678;23.294;2022-08-19T00:28:44;94664.41;;;22.06;100.00
13821;BME280;6981;42.678;23.294;2022-08-19T00:31:24;94578.94;;;21.52;100.00
13821;BME280;6981;42.678;23.294;2022-08-19T00:34:14;94455.91;;;20.78;100.00
13821;BME280;6981;42.678;23.294;2022-08-19T00:36:46;94656.63;;;22.04;100.00
13821;BME280;6981;42.678;23.294;2022-08-19T00:39:26;94427.25;;;20.69;100.00
13821;BME280;6981;42.678;23.294;2022-08-19T00:42:21;94432.41;;;20.48;100.00
13821;BME280;6981;42.678;23.294;2022-08-19T00:45:25;94640.72;;;21.93;100.00
13821;BME280;6981;42.678;23.294;2022-08-19T00:48:15;94452.69;;;20.76;100.00
13821;BME280;6981;42.678;23.294;2022-08-19T00:51:12;94654.81;;;22.10;100.00
13821;BME280;6981;42.678;23.294;2022-08-19T00:57:36;94465.19;;;20.71;100.00
13821;BME280;6981;42.678;23.294;2022-08-19T01:00:33;94417.09;;;20.39;100.00
13821;BME280;6981;42.678;23.294;2022-08-19T01:03:30;94427.47;;;20.35;100.00
13821;BME280;6981;42.678;23.294;2022-08-19T01:10:07;94494.25;;;20.67;100.00
13821;BME280;6981;42.678;23.294;2022-08-19T01:16:10;94563.50;;;21.05;100.00
13821;BME280;6981;42.678;23.294;2022-08-19T01:19:24;94641.09;;;21.69;100.00
13821;BME280;6981;42.678;23.294;2022-08-19T01:22:12;94439.97;;;20.13;100.00
13821;BME280;6981;42.678;23.294;2022-08-19T01:28:29;94630.00;;;21.29;100.00
13821;BME280;6981;42.678;23.294;2022-08-19T01:31:13;94498.19;;;20.38;100.00
13821;BME280;6981;42.678;23.294;2022-08-19T01:33:42;94489.78;;;20.29;100.00
13821;BME280;6981;42.678;23.294;2022-08-19T01:36:29;94430.28;;;19.80;100.00
13821;BME280;6981;42.678;23.294;2022-08-19T01:39:16;94432.72;;;19.65;100.00
13821;BME280;6981;42.678;23.294;2022-08-19T01:41:57;94556.41;;;20.67;100.00
13821;BME280;6981;42.678;23.294;2022-08-19T01:54:32;94515.50;;;19.97;100.00
13821;BME280;6981;42.678;23.294;2022-08-19T01:57:07;94505.72;;;19.80;100.00
13821;BME280;6981;42.678;23.294;2022-08-19T01:59:41;94436.00;;;19.33;100.00
13821;BME280;6981;42.678;23.294;2022-08-19T02:02:17;94475.34;;;19.65;100.00
13821;BME280;6981;42.678;23.294;2022-08-19T02:04:59;94413.91;;;19.50;100.00
13821;BME280;6981;42.678;23.294;2022-08-19T02:07:40;94414.63;;;19.28;100.00
13821;BME280;6981;42.678;23.294;2022-08-19T02:13:54;94416.06;;;19.36;100.00
13821;BME280;6981;42.678;23.294;2022-08-19T02:16:39;94468.34;;;19.59;100.00
13821;BME280;6981;42.678;23.294;2022-08-19T02:19:22;94544.03;;;19.96;100.00
13821;BME280;6981;42.678;23.294;2022-08-19T02:22:08;94429.72;;;19.23;100.00
13821;BME280;6981;42.678;23.294;2022-08-19T02:27:53;94443.25;;;19.21;100.00
13821;BME280;6981;42.678;23.294;2022-08-19T02:44:20;94393.59;;;18.93;100.00
13821;BME280;6981;42.678;23.294;2022-08-19T02:47:15;94594.09;;;20.11;100.00
13821;BME280;6981;42.678;23.294;2022-08-19T02:50:05;94411.09;;;18.73;100.00
13821;BME280;6981;42.678;23.294;2022-08-19T02:52:52;94656.25;;;20.11;100.00
13821;BME280;6981;42.678;23.294;2022-08-19T02:55:36;94664.16;;;20.06;100.00
13821;BME280;6981;42.678;23.294;2022-08-19T02:58:16;94541.03;;;19.09;100.00
13821;BME280;6981;42.678;23.294;2022-08-19T03:04:35;94458.16;;;18.55;100.00
13821;BME280;6981;42.678;23.294;2022-08-19T03:07:05;94437.13;;;18.25;100.00
13821;BME280;6981;42.678;23.294;2022-08-19T03:09:51;94408.06;;;18.07;100.00
13821;BME280;6981;42.678;23.294;2022-08-19T03:12:36;94431.50;;;18.39;100.00
13821;BME280;6981;42.678;23.294;2022-08-19T03:15:08;94518.25;;;18.85;100.00
13821;BME280;6981;42.678;23.294;2022-08-19T03:17:50;94442.28;;;18.32;100.00
13821;BME280;6981;42.678;23.294;2022-08-19T05:05:25;94585.22;;;24.15;100.00
13821;BME280;6981;42.678;23.294;2022-08-19T05:08:11;94483.13;;;24.56;100.00
13821;BME280;6981;42.678;23.294;2022-08-19T05:11:10;94528.66;;;25.64;100.00
13821;BME280;6981;42.678;23.294;2022-08-19T05:17:36;94712.19;;;28.06;96.25
13821;BME280;6981;42.678;23.294;2022-08-19T06:23:32;94589.88;;;29.69;66.30
13821;BME280;6981;42.678;23.294;2022-08-19T06:26:29;94519.03;;;30.29;58.90
13821;BME280;6981;42.678;23.294;2022-08-19T06:29:14;94605.50;;;31.01;57.48
13821;BME280;6981;42.678;23.294;2022-08-19T06:35:39;94506.88;;;28.24;65.88
13821;BME280;6981;42.678;23.294;2022-08-19T12:23:10;94368.19;;;32.47;34.26
13821;BME280;6981;42.678;23.294;2022-08-19T12:26:04;94297.41;;;32.35;33.63
13821;BME280;6981;42.678;23.294;2022-08-19T12:32:21;94393.63;;;33.22;32.86
13821;BME280;6981;42.678;23.294;2022-08-19T19:30:32;94420.22;;;26.40;88.06
13821;BME280;6981;42.678;23.294;2022-08-19T19:37:12;94299.38;;;25.49;100.00
13821;BME280;6981;42.678;23.294;2022-08-19T21:10:05;94348.53;;;24.18;100.00
13821;BME280;6981;42.678;23.294;2022-08-19T21:13:07;94587.25;;;25.72;100.00
13821;BME280;6981;42.678;23.294;2022-08-19T21:15:58;94347.56;;;23.94;100.00
13821;BME280;6981;42.678;23.294;2022-08-19T21:18:43;94578.06;;;25.39;100.00
13821;BME280;6981;42.678;23.294;2022-08-19T21:21:35;94405.44;;;24.10;100.00
13821;BME280;6981;42.678;23.294;2022-08-19T21:24:11;94348.66;;;23.88;100.00
13821;BME280;6981;42.678;23.294;2022-08-19T21:33:29;94574.41;;;25.20;100.00
13821;BME280;6981;42.678;23.294;2022-08-19T21:36:13;94468.75;;;24.21;100.00
13821;BME280;6981;42.678;23.294;2022-08-19T21:39:21;94448.66;;;24.19;100.00
13821;BME280;6981;42.678;23.294;2022-08-19T21:42:06;94342.84;;;23.71;100.00
13821;BME280;6981;42.678;23.294;2022-08-19T21:45:03;94342.66;;;23.47;100.00
13821;BME280;6981;42.678;23.294;2022-08-19T21:48:07;94565.69;;;24.94;100.00
13821;BME280;6981;42.678;23.294;2022-08-19T22:56:42;94326.28;;;24.08;100.00
